Time;durP1;ratioP1;P1;durP2;ratioP2;P2;SDS_P1;SDS_P2;PMS_P1;PMS_P2;Temp;Humidity;BMP_temperature;BMP_pressure;BME280_temperature;BME280_humidity;BME280_pressure;Samples;Min_cycle;Max_cycle;Signal;HPM_P1;HPM_P2
2022/06/01 00:00:26;;;;;;;;;;;;;;;;;;4986222;28;118518;-78
2022/06/01 00:02:53;;;;;;;;;;;;;;;;;;4989249;28;137982;-78
2022/06/01 00:05:19;;;;;;;;;;;;;;;;;;4985409;28;122182;-78
2022/06/01 00:07:46;;;;;;;;;;;;;;;;;;4985571;28;132804;-78
2022/06/01 00:10:13;;;;;;;;;;;;;;;;;;4979732;28;107427;-78
2022/06/01 00:12:39;;;;;;;;;;;;;;;;;;4987651;28;123900;-77
2022/06/01 00:15:05;;;;;;;;;;;;;;;;;;4986526;28;135202;-78
2022/06/01 00:17:32;;;;;;;;;;;;;;;;;;4989016;28;108709;-78
2022/06/01 00:19:58;;;;;;;;;;;;;;;;;;4990432;28;117022;-77
2022/06/01 00:22:24;;;;;;;;;;;;;;;;;;4992988;28;129808;-76
2022/06/01 00:24:51;;;;;;;;;;;;;;;;;;4982703;28;125855;-77
2022/06/01 00:27:17;;;;;;;;;;;;;;;;;;4985998;28;132451;-75
2022/06/01 00:29:43;;;;;;;;;;;;;;;;;;4986694;28;108867;-76
2022/06/01 00:32:13;;;;;;;;;;;;;;;;;;4983786;28;112082;-75
2022/06/01 00:34:39;;;;;;;;;;;;;;;;;;4987999;28;136596;-76
2022/06/01 00:37:05;;;;;;;;;;;;;;;;;;4983992;28;108535;-75
2022/06/01 00:39:31;;;;;;;;;;;;;;;;;;4980591;28;106113;-75
2022/06/01 00:41:58;;;;;;;;;;;;;;;;;;4988299;28;136016;-75
2022/06/01 00:44:24;;;;;;;;;;;;;;;;;;4981638;28;106344;-75
2022/06/01 00:46:51;;;;;;;;;;;;;;;;;;4981444;28;137219;-75
2022/06/01 00:49:17;;;;;;;;;;;;;;;;;;4985142;28;106034;-75
2022/06/01 00:51:43;;;;;;;;;;;;;;;;;;4987864;28;122371;-76
2022/06/01 00:54:10;;;;;;;;;;;;;;;;;;4981513;28;107292;-76
2022/06/01 00:56:36;;;;;;;;;;;;;;;;;;4985706;28;128089;-77
2022/06/01 00:59:02;;;;;;;;;;;;;;;;;;4979576;28;117348;-76
2022/06/01 01:01:30;;;;;;;;;;;;;;;;;;4986183;28;117810;-77
2022/06/01 01:03:57;;;;;;;;;;;;;;;;;;4986680;28;114485;-75
2022/06/01 01:06:23;;;;;;;;;;;;;;;;;;4983837;28;133432;-77
2022/06/01 01:08:50;;;;;;;;;;;;;;;;;;4990756;28;127746;-77
2022/06/01 01:11:16;;;;;;;;;;;;;;;;;;4987783;28;105900;-77
2022/06/01 01:13:42;;;;;;;;;;;;;;;;;;5001201;22;135323;-64
2022/06/01 01:16:10;;;;;;;;;;;;;;;;;;4989425;28;107194;-66
2022/06/01 01:18:36;;;;;;;;;;;;;;;;;;4990672;28;121738;-66
2022/06/01 01:21:02;;;;;;;;;;;;;;;;;;4988678;28;135115;-66
2022/06/01 01:23:29;;;;;;;;;;;;;;;;;;4987349;28;129916;-66
2022/06/01 01:25:55;;;;;;;;;;;;;;;;;;4993757;28;118381;-66
2022/06/01 01:28:22;;;;;;;;;;;;;;;;;;4989897;28;136510;-65
2022/06/01 01:30:49;;;;;;;;;;;;;;;;;;4984960;28;106314;-64
2022/06/01 01:33:15;;;;;;;;;;;;;;;;;;4989335;28;107562;-65
2022/06/01 01:35:42;;;;;;;;;;;;;;;;;;4983369;28;137179;-65
2022/06/01 01:38:09;;;;;;;;;;;;;;;;;;4983027;28;110921;-65
2022/06/01 01:40:35;;;;;;;;;;;;;;;;;;4987507;28;131369;-65
2022/06/01 01:43:02;;;;;;;;;;;;;;;;;;4987033;28;133002;-65
2022/06/01 01:45:28;;;;;;;;;;;;;;;;;;4989799;28;106447;-65
2022/06/01 01:47:54;;;;;;;;;;;;;;;;;;4994202;28;129059;-64
2022/06/01 01:50:21;;;;;;;;;;;;;;;;;;4989041;28;116455;-65
2022/06/01 01:52:47;;;;;;;;;;;;;;;;;;4990897;28;131639;-64
2022/06/01 01:55:13;;;;;;;;;;;;;;;;;;4986904;28;106580;-65
2022/06/01 01:57:40;;;;;;;;;;;;;;;;;;4983144;28;119735;-65
2022/06/01 02:00:06;;;;;;;;;;;;;;;;;;4987762;28;119117;-65
2022/06/01 02:02:32;;;;;;;;;;;;;;;;;;4982695;28;129809;-65
2022/06/01 02:07:43;;;;;;;;;;;;;;;;;;4979077;28;126079;-64
2022/06/01 02:12:55;;;;;;;;;;;;;;;;;;4976963;28;119569;-64
2022/06/01 02:15:21;;;;;;;;;;;;;;;;;;4981263;28;126102;-65
2022/06/01 02:17:49;;;;;;;;;;;;;;;;;;4989693;28;121817;-65
2022/06/01 02:20:16;;;;;;;;;;;;;;;;;;4986211;28;126866;-65
2022/06/01 02:22:42;;;;;;;;;;;;;;;;;;4984040;28;136940;-65
2022/06/01 02:25:09;;;;;;;;;;;;;;;;;;4982500;28;110757;-64
2022/06/01 02:27:35;;;;;;;;;;;;;;;;;;4987094;28;127194;-65
2022/06/01 02:30:01;;;;;;;;;;;;;;;;;;4990485;28;114118;-64
2022/06/01 02:32:28;;;;;;;;;;;;;;;;;;4990776;28;106204;-65
2022/06/01 02:34:54;;;;;;;;;;;;;;;;;;4981592;28;123733;-64
2022/06/01 02:37:21;;;;;;;;;;;;;;;;;;4986852;28;121008;-65
2022/06/01 02:39:47;;;;;;;;;;;;;;;;;;4987607;28;107083;-65
2022/06/01 02:42:25;;;;;;;;;;;;;;;;;;4982352;28;129206;-65
2022/06/01 02:44:52;;;;;;;;;;;;;;;;;;4990101;28;114410;-65
2022/06/01 02:47:18;;;;;;;;;;;;;;;;;;4985555;28;134940;-65
2022/06/01 02:49:44;;;;;;;;;;;;;;;;;;4983262;28;133220;-65
2022/06/01 02:52:10;;;;;;;;;;;;;;;;;;4990387;28;119035;-65
2022/06/01 02:54:37;;;;;;;;;;;;;;;;;;4984234;28;137569;-65
2022/06/01 02:57:04;;;;;;;;;;;;;;;;;;4983633;28;107611;-65
2022/06/01 02:59:30;;;;;;;;;;;;;;;;;;4988562;28;128112;-64
2022/06/01 03:01:56;;;;;;;;;;;;;;;;;;4977666;28;135562;-65
2022/06/01 03:04:22;;;;;;;;;;;;;;;;;;4986951;28;123497;-65
2022/06/01 03:06:49;;;;;;;;;;;;;;;;;;4988423;28;131642;-65
2022/06/01 03:09:32;;;;;;;;;;;;;;;;;;4987417;28;132931;-65
2022/06/01 03:11:58;;;;;;;;;;;;;;;;;;4986622;28;109115;-66
2022/06/01 03:14:24;;;;;;;;;;;;;;;;;;4989170;28;133914;-66
2022/06/01 03:16:52;;;;;;;;;;;;;;;;;;4988144;28;106066;-65
2022/06/01 03:19:19;;;;;;;;;;;;;;;;;;4978654;28;131224;-65
2022/06/01 03:21:45;;;;;;;;;;;;;;;;;;4981308;28;137825;-65
2022/06/01 03:24:11;;;;;;;;;;;;;;;;;;4988513;28;122000;-65
2022/06/01 03:26:38;;;;;;;;;;;;;;;;;;4977325;28;132529;-65
2022/06/01 03:29:04;;;;;;;;;;;;;;;;;;4985713;28;127345;-66
2022/06/01 03:31:30;;;;;;;;;;;;;;;;;;4988274;28;121967;-65
2022/06/01 03:33:57;;;;;;;;;;;;;;;;;;4987545;28;134433;-65
2022/06/01 03:36:23;;;;;;;;;;;;;;;;;;4985427;28;128253;-65
2022/06/01 03:38:50;;;;;;;;;;;;;;;;;;4983255;28;129654;-65
2022/06/01 03:41:16;;;;;;;;;;;;;;;;;;4986370;28;117675;-64
2022/06/01 03:46:29;;;;;;;;;;;;;;;;;;4976405;28;126928;-65
2022/06/01 03:48:55;;;;;;;;;;;;;;;;;;4985912;28;136807;-65
2022/06/01 03:51:24;;;;;;;;;;;;;;;;;;4985586;28;123253;-65
2022/06/01 03:53:50;;;;;;;;;;;;;;;;;;4988516;28;124130;-64
2022/06/01 03:56:17;;;;;;;;;;;;;;;;;;4980915;28;134629;-65
2022/06/01 03:58:43;;;;;;;;;;;;;;;;;;4987846;28;119440;-65
2022/06/01 04:01:10;;;;;;;;;;;;;;;;;;4982441;28;119485;-65
2022/06/01 04:03:36;;;;;;;;;;;;;;;;;;4987868;28;122842;-65
2022/06/01 04:06:02;;;;;;;;;;;;;;;;;;4985272;28;135078;-64
2022/06/01 04:08:29;;;;;;;;;;;;;;;;;;4987883;28;136319;-64
2022/06/01 04:10:55;;;;;;;;;;;;;;;;;;4982862;28;114694;-65
2022/06/01 04:13:21;;;;;;;;;;;;;;;;;;4986917;28;106778;-65
2022/06/01 04:15:48;;;;;;;;;;;;;;;;;;4989777;28;119309;-65
2022/06/01 04:18:14;;;;;;;;;;;;;;;;;;4986694;28;107297;-65
2022/06/01 04:20:40;;;;;;;;;;;;;;;;;;4991434;28;127915;-64
2022/06/01 04:23:06;;;;;;;;;;;;;;;;;;4984096;28;116151;-65
2022/06/01 04:25:33;;;;;;;;;;;;;;;;;;4986923;28;128120;-64
2022/06/01 04:27:59;;;;;;;;;;;;;;;;;;4987204;28;114137;-64
2022/06/01 04:30:25;;;;;;;;;;;;;;;;;;4987712;28;125191;-65
2022/06/01 04:32:52;;;;;;;;;;;;;;;;;;4979619;28;121209;-64
2022/06/01 04:35:19;;;;;;;;;;;;;;;;;;4984571;28;134963;-64
2022/06/01 04:37:45;;;;;;;;;;;;;;;;;;4977404;28;108185;-64
2022/06/01 04:40:11;;;;;;;;;;;;;;;;;;4988359;28;105977;-64
2022/06/01 04:42:39;;;;;;;;;;;;;;;;;;4990751;28;113411;-65
2022/06/01 04:45:05;;;;;;;;;;;;;;;;;;4987166;28;130467;-64
2022/06/01 04:47:31;;;;;;;;;;;;;;;;;;4985583;28;132839;-65
2022/06/01 04:49:58;;;;;;;;;;;;;;;;;;4989179;28;110747;-64
2022/06/01 04:52:24;;;;;;;;;;;;;;;;;;4983766;28;137092;-65
2022/06/01 04:54:50;;;;;;;;;;;;;;;;;;4987673;28;119305;-64
2022/06/01 04:57:17;;;;;;;;;;;;;;;;;;4974995;28;113967;-64
2022/06/01 04:59:43;;;;;;;;;;;;;;;;;;4979162;28;123714;-64
2022/06/01 05:02:09;;;;;;;;;;;;;;;;;;4991120;28;131093;-64
2022/06/01 05:04:35;;;;;;;;;;;;;;;;;;4988799;28;106939;-64
2022/06/01 05:07:02;;;;;;;;;;;;;;;;;;4983281;28;134643;-64
2022/06/01 05:09:28;;;;;;;;;;;;;;;;;;4985349;28;106917;-64
2022/06/01 05:11:55;;;;;;;;;;;;;;;;;;4980823;28;130777;-64
2022/06/01 05:14:21;;;;;;;;;;;;;;;;;;4983222;28;126545;-64
2022/06/01 05:16:47;;;;;;;;;;;;;;;;;;4982901;28;114708;-64
2022/06/01 05:19:13;;;;;;;;;;;;;;;;;;4985173;28;136440;-65
2022/06/01 05:21:40;;;;;;;;;;;;;;;;;;4985638;28;134077;-65
2022/06/01 05:24:06;;;;;;;;;;;;;;;;;;4985769;28;121954;-65
2022/06/01 05:26:33;;;;;;;;;;;;;;;;;;4980261;28;107143;-65
2022/06/01 05:28:59;;;;;;;;;;;;;;;;;;4985911;28;106422;-65
2022/06/01 05:31:25;;;;;;;;;;;;;;;;;;4986481;28;136300;-65
2022/06/01 05:33:52;;;;;;;;;;;;;;;;;;4987711;28;135079;-65
2022/06/01 05:36:18;;;;;;;;;;;;;;;;;;4991305;28;108725;-65
2022/06/01 05:38:47;;;;;;;;;;;;;;;;;;4983728;28;136455;-64
2022/06/01 05:41:13;;;;;;;;;;;;;;;;;;4983459;28;130811;-64
2022/06/01 05:43:40;;;;;;;;;;;;;;;;;;4978970;28;125530;-65
2022/06/01 05:46:06;;;;;;;;;;;;;;;;;;4978498;28;125927;-65
2022/06/01 05:48:32;;;;;;;;;;;;;;;;;;4988182;28;107504;-65
2022/06/01 05:50:59;;;;;;;;;;;;;;;;;;4984087;28;106630;-65
2022/06/01 05:53:25;;;;;;;;;;;;;;;;;;4988368;28;134570;-65
2022/06/01 05:55:51;;;;;;;;;;;;;;;;;;4988775;28;114355;-65
2022/06/01 05:58:18;;;;;;;;;;;;;;;;;;4986076;28;110903;-65
2022/06/01 06:00:44;;;;;;;;;;;;;;;;;;4990894;28;134064;-65
2022/06/01 06:03:11;;;;;;;;;;;;;;;;;;4987621;28;106207;-65
2022/06/01 06:08:22;;;;;;;;;;;;;;;;;;4991641;28;124305;-66
2022/06/01 06:10:48;;;;;;;;;;;;;;;;;;4987200;28;136850;-65
2022/06/01 06:13:15;;;;;;;;;;;;;;;;;;4976118;28;129426;-65
2022/06/01 06:15:41;;;;;;;;;;;;;;;;;;4986496;28;105794;-65
2022/06/01 06:18:07;;;;;;;;;;;;;;;;;;4991091;28;134868;-65
2022/06/01 06:20:34;;;;;;;;;;;;;;;;;;4986411;28;107299;-65
2022/06/01 06:23:00;;;;;;;;;;;;;;;;;;4979024;28;119307;-63
2022/06/01 06:25:26;;;;;;;;;;;;;;;;;;4977192;28;134977;-65
2022/06/01 06:27:53;;;;;;;;;;;;;;;;;;4984179;28;136422;-64
2022/06/01 06:30:19;;;;;;;;;;;;;;;;;;4980658;28;121070;-64
2022/06/01 06:32:46;;;;;;;;;;;;;;;;;;4984620;28;117551;-64
2022/06/01 06:35:12;;;;;;;;;;;;;;;;;;4991686;28;112002;-68
2022/06/01 06:37:38;;;;;;;;;;;;;;;;;;4980891;28;109180;-66
2022/06/01 06:40:04;;;;;;;;;;;;;;;;;;4986817;28;113029;-65
2022/06/01 06:42:31;;;;;;;;;;;;;;;;;;4986636;28;106264;-65
2022/06/01 06:44:57;;;;;;;;;;;;;;;;;;4987447;28;121098;-65
2022/06/01 06:47:23;;;;;;;;;;;;;;;;;;4976884;28;135737;-65
2022/06/01 06:49:50;;;;;;;;;;;;;;;;;;4985952;28;122465;-67
2022/06/01 06:52:16;;;;;;;;;;;;;;;;;;4990298;28;133788;-68
2022/06/01 06:54:42;;;;;;;;;;;;;;;;;;4989468;28;118958;-65
2022/06/01 06:57:09;;;;;;;;;;;;;;;;;;4976420;28;137173;-64
2022/06/01 06:59:36;;;;;;;;;;;;;;;;;;4987425;28;122281;-65
2022/06/01 07:02:03;;;;;;;;;;;;;;;;;;4987332;28;116812;-64
2022/06/01 07:04:29;;;;;;;;;;;;;;;;;;4984699;28;134323;-64
2022/06/01 07:06:56;;;;;;;;;;;;;;;;;;4978253;28;115547;-64
2022/06/01 07:09:22;;;;;;;;;;;;;;;;;;4988090;28;117478;-64
2022/06/01 07:11:48;;;;;;;;;;;;;;;;;;4992765;28;135846;-64
2022/06/01 07:14:14;;;;;;;;;;;;;;;;;;4983024;28;106809;-64
2022/06/01 07:16:41;;;;;;;;;;;;;;;;;;4989234;28;136575;-64
2022/06/01 07:19:08;;;;;;;;;;;;;;;;;;4980208;28;134857;-64
2022/06/01 07:21:38;;;;;;;;;;;;;;;;;;4988701;28;118998;-65
2022/06/01 07:24:05;;;;;;;;;;;;;;;;;;4985481;28;131531;-65
2022/06/01 07:26:31;;;;;;;;;;;;;;;;;;4987800;28;131685;-64
2022/06/01 07:28:58;;;;;;;;;;;;;;;;;;4990393;28;106457;-64
2022/06/01 07:31:24;;;;;;;;;;;;;;;;;;4981172;28;124987;-64
2022/06/01 07:33:51;;;;;;;;;;;;;;;;;;4992160;28;107373;-65
2022/06/01 07:36:17;;;;;;;;;;;;;;;;;;4990207;28;136065;-64
2022/06/01 07:44:13;;;;;;;;;;;;;;;;;;4983763;28;124015;-64
2022/06/01 07:46:39;;;;;;;;;;;;;;;;;;4981152;28;137391;-64
2022/06/01 07:49:11;;;;;;;;;;;;;;;;;;4987703;28;121086;-64
2022/06/01 07:51:57;;;;;;;;;;;;;;;;;;4991095;28;106738;-65
2022/06/01 07:54:23;;;;;;;;;;;;;;;;;;4979116;28;120552;-65
2022/06/01 07:56:50;;;;;;;;;;;;;;;;;;4988808;28;105935;-64
2022/06/01 07:59:16;;;;;;;;;;;;;;;;;;4987764;28;138197;-63
2022/06/01 08:01:42;;;;;;;;;;;;;;;;;;4981173;28;113685;-64
2022/06/01 08:04:09;;;;;;;;;;;;;;;;;;4987575;28;121540;-63
2022/06/01 08:06:36;;;;;;;;;;;;;;;;;;4980512;28;133361;-64
2022/06/01 08:09:20;;;;;;;;;;;;;;;;;;4976447;28;123032;-65
2022/06/01 08:14:33;;;;;;;;;;;;;;;;;;4972440;28;136192;-63
2022/06/01 08:17:00;;;;;;;;;;;;;;;;;;4982231;28;106475;-64
2022/06/01 08:19:26;;;;;;;;;;;;;;;;;;4978162;28;120401;-63
2022/06/01 08:21:52;;;;;;;;;;;;;;;;;;4984191;28;114355;-63
2022/06/01 08:24:19;;;;;;;;;;;;;;;;;;4987135;28;136298;-63
2022/06/01 08:26:45;;;;;;;;;;;;;;;;;;4982079;28;135620;-64
2022/06/01 08:29:11;;;;;;;;;;;;;;;;;;4985074;28;118663;-64
2022/06/01 08:31:38;;;;;;;;;;;;;;;;;;4981173;28;128525;-64
2022/06/01 08:34:04;;;;;;;;;;;;;;;;;;4980309;28;133316;-67
2022/06/01 08:36:30;;;;;;;;;;;;;;;;;;4989782;28;125161;-65
2022/06/01 08:38:56;;;;;;;;;;;;;;;;;;4976847;28;134288;-64
2022/06/01 08:41:23;;;;;;;;;;;;;;;;;;4989425;28;135360;-65
2022/06/01 08:43:50;;;;;;;;;;;;;;;;;;4987576;28;136433;-64
2022/06/01 08:46:16;;;;;;;;;;;;;;;;;;4982544;28;130835;-64
2022/06/01 08:48:43;;;;;;;;;;;;;;;;;;4984266;28;123255;-64
2022/06/01 08:51:09;;;;;;;;;;;;;;;;;;4981107;28;124231;-64
2022/06/01 08:53:35;;;;;;;;;;;;;;;;;;4976898;28;107343;-65
2022/06/01 08:56:07;;;;;;;;;;;;;;;;;;4982506;28;124606;-65
2022/06/01 08:58:33;;;;;;;;;;;;;;;;;;4984228;28;108012;-66
2022/06/01 09:00:59;;;;;;;;;;;;;;;;;;4965055;28;115011;-66
2022/06/01 09:03:26;;;;;;;;;;;;;;;;;;4988544;28;107924;-64
2022/06/01 09:05:54;;;;;;;;;;;;;;;;;;4982131;28;126805;-69
2022/06/01 09:08:20;;;;;;;;;;;;;;;;;;4981227;28;124920;-66
2022/06/01 09:10:46;;;;;;;;;;;;;;;;;;4976812;28;132012;-64
2022/06/01 09:13:12;;;;;;;;;;;;;;;;;;4979434;28;122700;-64
2022/06/01 09:15:39;;;;;;;;;;;;;;;;;;4982683;28;110630;-65
2022/06/01 09:18:05;;;;;;;;;;;;;;;;;;4994443;27;110334;-65
2022/06/01 09:23:17;;;;;;;;;;;;;;;;;;4982992;28;112813;-66
2022/06/01 09:25:43;;;;;;;;;;;;;;;;;;4984080;28;120984;-66
2022/06/01 09:28:09;;;;;;;;;;;;;;;;;;4986758;28;111983;-66
2022/06/01 09:30:36;;;;;;;;;;;;;;;;;;4991924;28;111290;-66
2022/06/01 09:33:02;;;;;;;;;;;;;;;;;;4985556;28;107340;-66
2022/06/01 09:35:29;;;;;;;;;;;;;;;;;;4988205;28;109702;-66
2022/06/01 09:37:55;;;;;;;;;;;;;;;;;;4991151;28;106858;-67
2022/06/01 09:40:22;;;;;;;;;;;;;;;;;;4984484;28;135305;-67
2022/06/01 09:42:48;;;;;;;;;;;;;;;;;;4987048;28;120080;-65
2022/06/01 09:45:14;;;;;;;;;;;;;;;;;;4991553;28;121275;-66
2022/06/01 09:47:43;;;;;;;;;;;;;;;;;;4989058;28;107572;-66
2022/06/01 09:50:09;;;;;;;;;;;;;;;;;;4994852;28;125427;-69
2022/06/01 09:52:37;;;;;;;;;;;;;;;;;;4983544;28;136210;-66
2022/06/01 09:55:03;;;;;;;;;;;;;;;;;;4987616;28;106063;-66
2022/06/01 09:57:29;;;;;;;;;;;;;;;;;;4992892;28;106723;-67
2022/06/01 10:08:17;;;;;;;;;;;;;;;;;;4996506;28;106742;-65
2022/06/01 10:10:43;;;;;;;;;;;;;;;;;;4994686;28;121420;-68
2022/06/01 10:13:10;;;;;;;;;;;;;;;;;;4990926;28;130414;-65
2022/06/01 10:15:36;;;;;;;;;;;;;;;;;;4986437;28;116227;-66
2022/06/01 10:18:05;;;;;;;;;;;;;;;;;;4984777;28;126773;-66
2022/06/01 10:20:31;;;;;;;;;;;;;;;;;;4991970;28;108914;-65
2022/06/01 10:22:57;;;;;;;;;;;;;;;;;;4981156;28;123874;-66
2022/06/01 10:25:24;;;;;;;;;;;;;;;;;;4979609;28;108615;-66
2022/06/01 10:27:50;;;;;;;;;;;;;;;;;;4989753;28;134233;-66
2022/06/01 10:30:16;;;;;;;;;;;;;;;;;;4997885;28;106122;-66
2022/06/01 10:32:43;;;;;;;;;;;;;;;;;;4990508;28;112263;-65
2022/06/01 10:35:09;;;;;;;;;;;;;;;;;;4989337;28;119159;-65
2022/06/01 10:37:35;;;;;;;;;;;;;;;;;;4989360;28;135298;-65
2022/06/01 10:40:02;;;;;;;;;;;;;;;;;;4991718;28;106367;-64
2022/06/01 10:43:16;;;;;;;;;;;;;;;;;;4987711;28;107857;-64
2022/06/01 10:45:15;;;;;;;;;;;;;;;;;;4988784;28;135742;-63
2022/06/01 10:47:41;;;;;;;;;;;;;;;;;;4987226;28;120659;-65
2022/06/01 10:50:08;;;;;;;;;;;;;;;;;;4989587;28;106724;-65
2022/06/01 10:52:34;;;;;;;;;;;;;;;;;;4991424;28;116732;-66
2022/06/01 10:55:01;;;;;;;;;;;;;;;;;;4988863;28;113583;-64
2022/06/01 10:57:27;;;;;;;;;;;;;;;;;;4991055;28;135952;-67
2022/06/01 10:59:53;;;;;;;;;;;;;;;;;;4986425;28;113782;-65
2022/06/01 11:02:21;;;;;;;;;;;;;;;;;;4987138;28;107249;-63
2022/06/01 11:04:48;;;;;;;;;;;;;;;;;;4991561;28;111563;-63
2022/06/01 11:07:14;;;;;;;;;;;;;;;;;;4988050;28;129643;-65
2022/06/01 11:09:40;;;;;;;;;;;;;;;;;;4980067;28;122562;-63
2022/06/01 11:12:06;;;;;;;;;;;;;;;;;;4985457;28;123033;-64
2022/06/01 11:14:35;;;;;;;;;;;;;;;;;;4988392;28;106298;-65
2022/06/01 11:17:01;;;;;;;;;;;;;;;;;;4992847;28;132459;-65
2022/06/01 11:19:28;;;;;;;;;;;;;;;;;;4993701;28;110684;-65
2022/06/01 11:21:54;;;;;;;;;;;;;;;;;;4988467;28;106457;-65
2022/06/01 11:24:21;;;;;;;;;;;;;;;;;;4989427;28;134530;-67
2022/06/01 11:27:05;;;;;;;;;;;;;;;;;;4986140;28;134487;-67
2022/06/01 11:29:31;;;;;;;;;;;;;;;;;;4989570;28;114665;-65
2022/06/01 11:31:58;;;;;;;;;;;;;;;;;;4967834;28;124243;-67
2022/06/01 11:34:24;;;;;;;;;;;;;;;;;;4987262;28;126012;-65
2022/06/01 11:36:51;;;;;;;;;;;;;;;;;;4989842;28;134596;-67
2022/06/01 11:39:17;;;;;;;;;;;;;;;;;;4990418;28;124163;-66
2022/06/01 11:41:43;;;;;;;;;;;;;;;;;;4989093;28;106532;-66
2022/06/01 11:44:11;;;;;;;;;;;;;;;;;;4986238;28;126999;-66
2022/06/01 11:46:37;;;;;;;;;;;;;;;;;;4995267;28;136107;-64
2022/06/01 11:49:04;;;;;;;;;;;;;;;;;;4985477;28;106310;-67
2022/06/01 11:51:31;;;;;;;;;;;;;;;;;;4987116;28;137569;-64
2022/06/01 11:53:57;;;;;;;;;;;;;;;;;;4989732;28;106373;-64
2022/06/01 11:56:24;;;;;;;;;;;;;;;;;;4990616;28;109107;-66
2022/06/01 11:58:50;;;;;;;;;;;;;;;;;;4985713;28;129393;-63
2022/06/01 12:01:20;;;;;;;;;;;;;;;;;;4987615;28;108819;-64
2022/06/01 12:03:46;;;;;;;;;;;;;;;;;;4984593;28;136190;-63
2022/06/01 12:06:13;;;;;;;;;;;;;;;;;;4985794;28;126314;-63
2022/06/01 12:08:39;;;;;;;;;;;;;;;;;;4984192;28;125300;-64
2022/06/01 12:11:06;;;;;;;;;;;;;;;;;;4986630;28;121576;-64
2022/06/01 12:13:32;;;;;;;;;;;;;;;;;;4993533;28;128717;-64
2022/06/01 12:15:59;;;;;;;;;;;;;;;;;;4990722;28;122304;-64
2022/06/01 12:18:29;;;;;;;;;;;;;;;;;;4994554;28;119694;-64
2022/06/01 12:20:55;;;;;;;;;;;;;;;;;;4993769;28;117873;-64
2022/06/01 12:28:52;;;;;;;;;;;;;;;;;;4997495;28;115344;-63
2022/06/01 12:31:18;;;;;;;;;;;;;;;;;;4992339;28;133650;-63
2022/06/01 12:33:45;;;;;;;;;;;;;;;;;;4996412;28;106799;-63
2022/06/01 12:36:11;;;;;;;;;;;;;;;;;;5000388;28;121330;-62
2022/06/01 12:38:37;;;;;;;;;;;;;;;;;;4992491;28;135443;-63
2022/06/01 12:41:04;;;;;;;;;;;;;;;;;;4996153;28;123592;-66
2022/06/01 12:43:30;;;;;;;;;;;;;;;;;;4990945;28;132887;-63
2022/06/01 12:45:57;;;;;;;;;;;;;;;;;;4993941;28;120260;-63
2022/06/01 12:48:27;;;;;;;;;;;;;;;;;;4990962;28;106453;-63
2022/06/01 12:50:54;;;;;;;;;;;;;;;;;;4993159;28;126259;-63
2022/06/01 12:53:20;;;;;;;;;;;;;;;;;;4993452;28;123337;-62
2022/06/01 12:55:46;;;;;;;;;;;;;;;;;;4993453;28;106596;-64
2022/06/01 12:58:14;;;;;;;;;;;;;;;;;;4997165;28;116409;-64
2022/06/01 13:00:41;;;;;;;;;;;;;;;;;;4998803;28;130371;-63
2022/06/01 13:03:07;;;;;;;;;;;;;;;;;;4997586;28;113292;-65
2022/06/01 13:05:35;;;;;;;;;;;;;;;;;;4997314;28;112980;-67
2022/06/01 13:08:01;;;;;;;;;;;;;;;;;;5000333;28;125152;-64
2022/06/01 13:10:27;;;;;;;;;;;;;;;;;;5003880;28;106368;-64
2022/06/01 13:12:54;;;;;;;;;;;;;;;;;;5000794;28;133776;-63
2022/06/01 13:15:20;;;;;;;;;;;;;;;;;;4998685;28;106133;-63
2022/06/01 13:17:46;;;;;;;;;;;;;;;;;;5002897;28;135097;-63
2022/06/01 13:20:14;;;;;;;;;;;;;;;;;;5000444;28;106443;-62
2022/06/01 13:22:42;;;;;;;;;;;;;;;;;;4996533;28;124673;-63
2022/06/01 13:25:08;;;;;;;;;;;;;;;;;;4999052;28;136364;-64
2022/06/01 13:27:35;;;;;;;;;;;;;;;;;;4996564;28;108462;-63
2022/06/01 13:30:03;;;;;;;;;;;;;;;;;;5012070;28;108684;-61
2022/06/01 13:32:29;;;;;;;;;;;;;;;;;;4988591;28;107322;-62
2022/06/01 13:34:56;;;;;;;;;;;;;;;;;;5001140;28;106638;-63
2022/06/01 13:37:22;;;;;;;;;;;;;;;;;;4990349;28;108633;-64
2022/06/01 13:39:48;;;;;;;;;;;;;;;;;;4984208;28;136905;-64
2022/06/01 13:42:15;;;;;;;;;;;;;;;;;;4992663;28;105960;-64
2022/06/01 13:44:41;;;;;;;;;;;;;;;;;;4986827;28;120008;-64
2022/06/01 13:47:07;;;;;;;;;;;;;;;;;;4993243;28;117084;-64
2022/06/01 13:49:38;;;;;;;;;;;;;;;;;;4988045;28;125080;-64
2022/06/01 13:52:05;;;;;;;;;;;;;;;;;;4986749;28;126644;-63
2022/06/01 13:54:31;;;;;;;;;;;;;;;;;;4988954;28;119532;-64
2022/06/01 13:56:57;;;;;;;;;;;;;;;;;;4981396;28;127305;-66
2022/06/01 13:59:24;;;;;;;;;;;;;;;;;;4991231;28;107818;-65
2022/06/01 14:01:51;;;;;;;;;;;;;;;;;;4981643;28;123320;-63
2022/06/01 14:04:17;;;;;;;;;;;;;;;;;;4991880;28;126792;-63
2022/06/01 14:06:43;;;;;;;;;;;;;;;;;;4991539;28;133758;-63
2022/06/01 14:09:10;;;;;;;;;;;;;;;;;;4991056;28;132560;-63
2022/06/01 14:11:36;;;;;;;;;;;;;;;;;;4981243;27;129533;-63
2022/06/01 14:14:03;;;;;;;;;;;;;;;;;;4985029;28;108770;-63
2022/06/01 14:16:29;;;;;;;;;;;;;;;;;;4990945;28;107491;-63
2022/06/01 14:18:55;;;;;;;;;;;;;;;;;;4982453;28;136026;-63
2022/06/01 14:21:22;;;;;;;;;;;;;;;;;;4992852;28;106178;-62
2022/06/01 14:23:48;;;;;;;;;;;;;;;;;;4987722;28;129767;-64
2022/06/01 14:29:00;;;;;;;;;;;;;;;;;;4993878;28;106143;-65
2022/06/01 14:31:29;;;;;;;;;;;;;;;;;;4992866;28;108804;-63
2022/06/01 14:33:56;;;;;;;;;;;;;;;;;;4982331;28;119031;-64
2022/06/01 14:36:22;;;;;;;;;;;;;;;;;;4989138;28;124344;-64
2022/06/01 14:38:48;;;;;;;;;;;;;;;;;;4985409;28;137974;-64
2022/06/01 14:41:15;;;;;;;;;;;;;;;;;;4987773;28;117942;-64
2022/06/01 14:43:42;;;;;;;;;;;;;;;;;;4982352;28;129191;-64
2022/06/01 14:46:08;;;;;;;;;;;;;;;;;;4986210;28;126130;-65
2022/06/01 14:48:35;;;;;;;;;;;;;;;;;;4980914;28;117881;-65
2022/06/01 14:51:01;;;;;;;;;;;;;;;;;;4987864;28;118609;-64
2022/06/01 14:53:27;;;;;;;;;;;;;;;;;;4987359;28;108045;-64
2022/06/01 14:55:54;;;;;;;;;;;;;;;;;;4986181;28;132934;-64
2022/06/01 14:58:20;;;;;;;;;;;;;;;;;;4989177;28;120743;-63
2022/06/01 15:00:46;;;;;;;;;;;;;;;;;;4986245;28;120866;-64
2022/06/01 15:03:13;;;;;;;;;;;;;;;;;;4987566;28;129449;-63
2022/06/01 15:05:39;;;;;;;;;;;;;;;;;;4989591;28;118020;-64
2022/06/01 15:08:05;;;;;;;;;;;;;;;;;;4985021;28;108640;-64
2022/06/01 15:10:32;;;;;;;;;;;;;;;;;;4987149;28;136460;-65
2022/06/01 15:12:58;;;;;;;;;;;;;;;;;;4991787;28;125494;-65
2022/06/01 15:15:25;;;;;;;;;;;;;;;;;;4982653;28;106729;-66
2022/06/01 15:17:51;;;;;;;;;;;;;;;;;;4984560;28;122375;-63
2022/06/01 15:20:17;;;;;;;;;;;;;;;;;;4986311;28;106151;-65
2022/06/01 15:22:43;;;;;;;;;;;;;;;;;;4981212;28;133355;-64
2022/06/01 15:25:10;;;;;;;;;;;;;;;;;;4981787;28;110730;-64
2022/06/01 15:27:37;;;;;;;;;;;;;;;;;;4981818;28;107582;-64
2022/06/01 15:41:04;;;;;;;;;;;;;;;;;;4977415;28;116579;-64
2022/06/01 15:43:30;;;;;;;;;;;;;;;;;;4986789;28;134414;-64
2022/06/01 15:46:01;;;;;;;;;;;;;;;;;;4983462;28;135033;-64
2022/06/01 15:48:27;;;;;;;;;;;;;;;;;;4981300;28;109739;-64
2022/06/01 15:50:54;;;;;;;;;;;;;;;;;;4988406;28;124946;-65
2022/06/01 15:53:20;;;;;;;;;;;;;;;;;;4980536;28;121129;-64
2022/06/01 15:55:47;;;;;;;;;;;;;;;;;;4991627;28;106469;-63
2022/06/01 15:58:13;;;;;;;;;;;;;;;;;;4986932;28;114133;-64
2022/06/01 16:00:39;;;;;;;;;;;;;;;;;;4982258;28;106342;-64
2022/06/01 16:03:06;;;;;;;;;;;;;;;;;;4983086;28;120739;-66
2022/06/01 16:05:32;;;;;;;;;;;;;;;;;;4978542;28;126712;-62
2022/06/01 16:07:59;;;;;;;;;;;;;;;;;;4986292;28;114946;-63
2022/06/01 16:10:25;;;;;;;;;;;;;;;;;;4981957;28;107384;-64
2022/06/01 16:12:51;;;;;;;;;;;;;;;;;;4982395;28;123781;-63
2022/06/01 16:15:18;;;;;;;;;;;;;;;;;;4986170;28;113943;-63
2022/06/01 16:17:44;;;;;;;;;;;;;;;;;;4981203;28;123959;-63
2022/06/01 16:20:10;;;;;;;;;;;;;;;;;;4978133;28;108822;-63
2022/06/01 16:22:37;;;;;;;;;;;;;;;;;;4976633;28;125310;-63
2022/06/01 16:25:03;;;;;;;;;;;;;;;;;;4981365;28;136965;-63
2022/06/01 16:27:30;;;;;;;;;;;;;;;;;;4983667;28;120914;-63
2022/06/01 16:29:57;;;;;;;;;;;;;;;;;;4996226;28;136019;-63
2022/06/01 16:32:23;;;;;;;;;;;;;;;;;;4976828;28;127228;-64
2022/06/01 16:34:50;;;;;;;;;;;;;;;;;;4985152;28;117893;-64
2022/06/01 16:37:16;;;;;;;;;;;;;;;;;;4979249;28;137594;-63
2022/06/01 16:39:45;;;;;;;;;;;;;;;;;;4989921;28;129720;-62
2022/06/01 16:42:12;;;;;;;;;;;;;;;;;;4981798;28;128111;-63
2022/06/01 16:44:38;;;;;;;;;;;;;;;;;;4986101;28;132981;-62
2022/06/01 16:47:04;;;;;;;;;;;;;;;;;;4979156;28;106341;-63
2022/06/01 16:49:30;;;;;;;;;;;;;;;;;;4976319;28;118204;-63
2022/06/01 16:51:57;;;;;;;;;;;;;;;;;;4985272;28;107233;-64
2022/06/01 16:54:23;;;;;;;;;;;;;;;;;;4976544;28;120444;-64
2022/06/01 16:56:49;;;;;;;;;;;;;;;;;;4993245;28;123445;-62
2022/06/01 16:59:16;;;;;;;;;;;;;;;;;;4995925;28;113146;-62
2022/06/01 17:01:42;;;;;;;;;;;;;;;;;;4986230;28;117870;-65
2022/06/01 17:04:09;;;;;;;;;;;;;;;;;;4980762;28;132470;-64
2022/06/01 17:06:35;;;;;;;;;;;;;;;;;;4984863;28;106418;-65
2022/06/01 17:09:02;;;;;;;;;;;;;;;;;;4978751;28;133103;-64
2022/06/01 17:11:31;;;;;;;;;;;;;;;;;;4985481;28;125769;-64
2022/06/01 17:14:01;;;;;;;;;;;;;;;;;;4979840;27;107307;-64